sensor_id;sensor_type;location;lat;lon;timestamp;pressure;altitude;pressure_sealevel;temperature;humidity
18167;BME280;9208;42.688;23.404;2023-03-16T00:01:58;94632.69;;;5.79;100.00
18167;BME280;9208;42.688;23.404;2023-03-16T00:04:24;94620.84;;;5.67;100.00
18167;BME280;9208;42.688;23.404;2023-03-16T00:06:49;94620.38;;;5.69;100.00
18167;BME280;9208;42.688;23.404;2023-03-16T00:09:14;94627.44;;;5.75;100.00
18167;BME280;9208;42.688;23.404;2023-03-16T00:11:40;94624.66;;;5.61;100.00
18167;BME280;9208;42.688;23.404;2023-03-16T00:14:05;94641.78;;;5.52;100.00
18167;BME280;9208;42.688;23.404;2023-03-16T00:16:31;94632.13;;;5.51;100.00
18167;BME280;9208;42.688;23.404;2023-03-16T00:18:56;94640.28;;;5.51;100.00
18167;BME280;9208;42.688;23.404;2023-03-16T00:21:23;94634.22;;;5.56;100.00
18167;BME280;9208;42.688;23.404;2023-03-16T00:23:49;94634.13;;;5.51;100.00
18167;BME280;9208;42.688;23.404;2023-03-16T00:26:14;94637.28;;;5.49;100.00
18167;BME280;9208;42.688;23.404;2023-03-16T00:28:39;94633.16;;;5.39;100.00
18167;BME280;9208;42.688;23.404;2023-03-16T00:31:08;94642.34;;;5.42;100.00
18167;BME280;9208;42.688;23.404;2023-03-16T00:33:36;94641.91;;;5.34;100.00
18167;BME280;9208;42.688;23.404;2023-03-16T00:36:03;94651.53;;;5.21;100.00
18167;BME280;9208;42.688;23.404;2023-03-16T00:38:34;94658.31;;;5.16;100.00
18167;BME280;9208;42.688;23.404;2023-03-16T00:41:01;94650.75;;;5.20;100.00
18167;BME280;9208;42.688;23.404;2023-03-16T00:43:31;94656.03;;;5.24;100.00
18167;BME280;9208;42.688;23.404;2023-03-16T00:46:06;94653.19;;;5.18;100.00
18167;BME280;9208;42.688;23.404;2023-03-16T00:48:33;94654.25;;;5.21;100.00
18167;BME280;9208;42.688;23.404;2023-03-16T00:51:01;94656.19;;;5.20;100.00
18167;BME280;9208;42.688;23.404;2023-03-16T00:53:27;94655.06;;;5.12;100.00
18167;BME280;9208;42.688;23.404;2023-03-16T00:55:52;94658.63;;;5.18;100.00
18167;BME280;9208;42.688;23.404;2023-03-16T00:58:18;94661.34;;;5.18;100.00
18167;BME280;9208;42.688;23.404;2023-03-16T01:00:44;94667.00;;;5.29;100.00
18167;BME280;9208;42.688;23.404;2023-03-16T01:03:10;94663.44;;;5.23;100.00
18167;BME280;9208;42.688;23.404;2023-03-16T01:05:40;94664.13;;;5.09;100.00
18167;BME280;9208;42.688;23.404;2023-03-16T01:08:06;94664.56;;;5.08;100.00
18167;BME280;9208;42.688;23.404;2023-03-16T01:10:36;94655.06;;;5.12;100.00
18167;BME280;9208;42.688;23.404;2023-03-16T01:13:02;94659.84;;;5.17;100.00
18167;BME280;9208;42.688;23.404;2023-03-16T01:15:29;94659.19;;;4.99;100.00
18167;BME280;9208;42.688;23.404;2023-03-16T01:17:55;94667.09;;;5.11;100.00
18167;BME280;9208;42.688;23.404;2023-03-16T01:20:20;94648.28;;;5.08;100.00
18167;BME280;9208;42.688;23.404;2023-03-16T01:22:46;94660.34;;;5.07;100.00
18167;BME280;9208;42.688;23.404;2023-03-16T01:25:12;94656.88;;;5.06;100.00
18167;BME280;9208;42.688;23.404;2023-03-16T01:27:38;94659.78;;;5.03;100.00
18167;BME280;9208;42.688;23.404;2023-03-16T01:30:04;94664.34;;;4.97;100.00
18167;BME280;9208;42.688;23.404;2023-03-16T01:32:30;94665.69;;;4.92;100.00
18167;BME280;9208;42.688;23.404;2023-03-16T01:34:59;94666.47;;;4.93;100.00
18167;BME280;9208;42.688;23.404;2023-03-16T01:37:25;94675.25;;;4.88;100.00
18167;BME280;9208;42.688;23.404;2023-03-16T01:39:50;94663.63;;;4.87;100.00
18167;BME280;9208;42.688;23.404;2023-03-16T01:42:16;94674.31;;;4.91;100.00
18167;BME280;9208;42.688;23.404;2023-03-16T01:44:56;94674.88;;;4.95;100.00
18167;BME280;9208;42.688;23.404;2023-03-16T01:47:31;94672.03;;;4.89;100.00
18167;BME280;9208;42.688;23.404;2023-03-16T01:50:03;94676.09;;;4.94;100.00
18167;BME280;9208;42.688;23.404;2023-03-16T01:52:35;94679.41;;;4.98;100.00
18167;BME280;9208;42.688;23.404;2023-03-16T01:55:04;94678.81;;;4.94;100.00
18167;BME280;9208;42.688;23.404;2023-03-16T01:57:33;94686.97;;;4.94;100.00
18167;BME280;9208;42.688;23.404;2023-03-16T02:00:10;94682.50;;;4.82;100.00
18167;BME280;9208;42.688;23.404;2023-03-16T02:02:44;94682.94;;;4.80;100.00
18167;BME280;9208;42.688;23.404;2023-03-16T02:05:21;94695.88;;;4.85;100.00
18167;BME280;9208;42.688;23.404;2023-03-16T02:07:49;94700.13;;;4.86;100.00
18167;BME280;9208;42.688;23.404;2023-03-16T02:10:17;94705.13;;;4.79;100.00
18167;BME280;9208;42.688;23.404;2023-03-16T02:12:43;94701.34;;;4.76;100.00
18167;BME280;9208;42.688;23.404;2023-03-16T02:15:11;94698.34;;;4.74;100.00
18167;BME280;9208;42.688;23.404;2023-03-16T02:17:38;94703.47;;;4.81;100.00
18167;BME280;9208;42.688;23.404;2023-03-16T02:22:41;94705.44;;;4.72;100.00
18167;BME280;9208;42.688;23.404;2023-03-16T02:25:09;94721.28;;;4.73;100.00
18167;BME280;9208;42.688;23.404;2023-03-16T02:30:09;94726.16;;;4.60;100.00
18167;BME280;9208;42.688;23.404;2023-03-16T02:32:37;94727.97;;;4.54;100.00
18167;BME280;9208;42.688;23.404;2023-03-16T02:35:06;94723.75;;;4.53;100.00
18167;BME280;9208;42.688;23.404;2023-03-16T02:37:31;94735.22;;;4.48;100.00
18167;BME280;9208;42.688;23.404;2023-03-16T02:40:01;94735.22;;;4.48;100.00
18167;BME280;9208;42.688;23.404;2023-03-16T02:42:34;94725.59;;;4.38;100.00
18167;BME280;9208;42.688;23.404;2023-03-16T02:44:59;94738.69;;;4.40;100.00
18167;BME280;9208;42.688;23.404;2023-03-16T02:47:33;94740.53;;;4.34;100.00
18167;BME280;9208;42.688;23.404;2023-03-16T02:50:00;94736.16;;;4.36;100.00
18167;BME280;9208;42.688;23.404;2023-03-16T02:52:26;94739.59;;;4.37;100.00
18167;BME280;9208;42.688;23.404;2023-03-16T02:54:52;94735.38;;;4.36;100.00
18167;BME280;9208;42.688;23.404;2023-03-16T02:57:17;94742.63;;;4.39;100.00
18167;BME280;9208;42.688;23.404;2023-03-16T02:59:42;94739.78;;;4.33;100.00
18167;BME280;9208;42.688;23.404;2023-03-16T03:02:08;94737.94;;;4.30;100.00
18167;BME280;9208;42.688;23.404;2023-03-16T03:04:36;94751.22;;;4.37;100.00
18167;BME280;9208;42.688;23.404;2023-03-16T03:07:02;94741.88;;;4.29;100.00
18167;BME280;9208;42.688;23.404;2023-03-16T03:09:30;94750.19;;;4.26;100.00
18167;BME280;9208;42.688;23.404;2023-03-16T03:11:57;94762.53;;;4.27;100.00
18167;BME280;9208;42.688;23.404;2023-03-16T03:14:22;94759.53;;;4.34;100.00
18167;BME280;9208;42.688;23.404;2023-03-16T03:16:49;94758.16;;;4.20;100.00
18167;BME280;9208;42.688;23.404;2023-03-16T03:19:16;94757.28;;;4.14;100.00
18167;BME280;9208;42.688;23.404;2023-03-16T03:21:41;94771.72;;;4.20;100.00
18167;BME280;9208;42.688;23.404;2023-03-16T03:24:08;94757.28;;;4.14;100.00
18167;BME280;9208;42.688;23.404;2023-03-16T03:26:34;94762.25;;;4.16;100.00
18167;BME280;9208;42.688;23.404;2023-03-16T03:29:03;94758.16;;;4.11;100.00
18167;BME280;9208;42.688;23.404;2023-03-16T03:31:29;94766.31;;;4.20;100.00
18167;BME280;9208;42.688;23.404;2023-03-16T03:33:54;94767.50;;;4.19;100.00
18167;BME280;9208;42.688;23.404;2023-03-16T03:36:20;94761.78;;;4.17;100.00
18167;BME280;9208;42.688;23.404;2023-03-16T03:38:47;94774.28;;;4.24;100.00
18167;BME280;9208;42.688;23.404;2023-03-16T03:41:14;94777.91;;;4.21;100.00
18167;BME280;9208;42.688;23.404;2023-03-16T03:43:39;94784.22;;;4.18;100.00
18167;BME280;9208;42.688;23.404;2023-03-16T03:46:05;94788.16;;;4.08;100.00
18167;BME280;9208;42.688;23.404;2023-03-16T03:48:31;94785.13;;;4.06;100.00
18167;BME280;9208;42.688;23.404;2023-03-16T03:50:57;94791.31;;;4.06;100.00
18167;BME280;9208;42.688;23.404;2023-03-16T03:53:23;94793.56;;;4.08;100.00
18167;BME280;9208;42.688;23.404;2023-03-16T03:55:48;94802.47;;;4.17;100.00
18167;BME280;9208;42.688;23.404;2023-03-16T03:58:14;94805.78;;;4.21;100.00
18167;BME280;9208;42.688;23.404;2023-03-16T04:00:39;94812.56;;;4.17;100.00
18167;BME280;9208;42.688;23.404;2023-03-16T04:03:05;94801.56;;;4.11;100.00
18167;BME280;9208;42.688;23.404;2023-03-16T04:05:30;94800.06;;;4.10;100.00
18167;BME280;9208;42.688;23.404;2023-03-16T04:07:56;94802.94;;;4.07;100.00
18167;BME280;9208;42.688;23.404;2023-03-16T04:10:24;94811.50;;;4.05;100.00
18167;BME280;9208;42.688;23.404;2023-03-16T04:12:50;94806.81;;;3.97;100.00
18167;BME280;9208;42.688;23.404;2023-03-16T04:15:15;94805.47;;;3.92;100.00
18167;BME280;9208;42.688;23.404;2023-03-16T04:17:40;94805.13;;;3.90;100.00
18167;BME280;9208;42.688;23.404;2023-03-16T04:20:06;94812.81;;;3.92;100.00
18167;BME280;9208;42.688;23.404;2023-03-16T04:22:38;94813.25;;;3.81;100.00
18167;BME280;9208;42.688;23.404;2023-03-16T04:25:04;94819.63;;;3.87;100.00
18167;BME280;9208;42.688;23.404;2023-03-16T04:27:29;94812.97;;;3.88;100.00
18167;BME280;9208;42.688;23.404;2023-03-16T04:30:04;94818.88;;;3.96;100.00
18167;BME280;9208;42.688;23.404;2023-03-16T04:32:31;94835.59;;;3.94;100.00
18167;BME280;9208;42.688;23.404;2023-03-16T04:34:56;94830.63;;;4.02;100.00
18167;BME280;9208;42.688;23.404;2023-03-16T04:37:22;94836.50;;;4.00;100.00
18167;BME280;9208;42.688;23.404;2023-03-16T04:39:47;94838.91;;;4.07;100.00
18167;BME280;9208;42.688;23.404;2023-03-16T04:42:13;94843.44;;;4.10;100.00
18167;BME280;9208;42.688;23.404;2023-03-16T04:44:38;94848.88;;;4.10;100.00
18167;BME280;9208;42.688;23.404;2023-03-16T04:47:13;94855.34;;;4.04;100.00
18167;BME280;9208;42.688;23.404;2023-03-16T04:49:39;94855.50;;;4.09;100.00
18167;BME280;9208;42.688;23.404;2023-03-16T04:52:05;94868.59;;;4.11;100.00
18167;BME280;9208;42.688;23.404;2023-03-16T04:54:31;94867.88;;;4.10;100.00
18167;BME280;9208;42.688;23.404;2023-03-16T04:56:57;94870.88;;;4.12;100.00
18167;BME280;9208;42.688;23.404;2023-03-16T04:59:23;94876.44;;;4.09;100.00
18167;BME280;9208;42.688;23.404;2023-03-16T05:01:49;94870.25;;;4.08;100.00
18167;BME280;9208;42.688;23.404;2023-03-16T05:04:15;94878.41;;;4.17;100.00
18167;BME280;9208;42.688;23.404;2023-03-16T05:06:43;94883.38;;;4.19;100.00
18167;BME280;9208;42.688;23.404;2023-03-16T05:09:09;94883.53;;;4.15;100.00
18167;BME280;9208;42.688;23.404;2023-03-16T05:11:34;94887.75;;;4.16;100.00
18167;BME280;9208;42.688;23.404;2023-03-16T05:14:00;94891.06;;;4.20;100.00
18167;BME280;9208;42.688;23.404;2023-03-16T05:16:29;94884.75;;;4.14;100.00
18167;BME280;9208;42.688;23.404;2023-03-16T05:18:59;94891.69;;;4.15;100.00
18167;BME280;9208;42.688;23.404;2023-03-16T05:21:24;94893.78;;;4.11;100.00
18167;BME280;9208;42.688;23.404;2023-03-16T05:23:50;94898.31;;;4.14;100.00
18167;BME280;9208;42.688;23.404;2023-03-16T05:26:16;94904.19;;;4.13;100.00
18167;BME280;9208;42.688;23.404;2023-03-16T05:28:42;94905.84;;;4.19;100.00
18167;BME280;9208;42.688;23.404;2023-03-16T05:31:08;94902.22;;;4.22;100.00
18167;BME280;9208;42.688;23.404;2023-03-16T05:33:34;94894.56;;;4.21;100.00
18167;BME280;9208;42.688;23.404;2023-03-16T05:35:59;94917.31;;;4.23;100.00
18167;BME280;9208;42.688;23.404;2023-03-16T05:38:27;94926.78;;;4.19;100.00
18167;BME280;9208;42.688;23.404;2023-03-16T05:40:53;94903.88;;;4.20;100.00
18167;BME280;9208;42.688;23.404;2023-03-16T05:43:21;94902.97;;;4.14;100.00
18167;BME280;9208;42.688;23.404;2023-03-16T05:45:47;94912.50;;;4.18;100.00
18167;BME280;9208;42.688;23.404;2023-03-16T05:48:13;94913.53;;;4.21;100.00
18167;BME280;9208;42.688;23.404;2023-03-16T05:50:40;94921.09;;;4.26;100.00
18167;BME280;9208;42.688;23.404;2023-03-16T05:53:06;94938.56;;;4.25;100.00
18167;BME280;9208;42.688;23.404;2023-03-16T05:55:33;94940.06;;;4.17;100.00
18167;BME280;9208;42.688;23.404;2023-03-16T05:57:58;94932.03;;;4.13;100.00
18167;BME280;9208;42.688;23.404;2023-03-16T06:00:24;94930.53;;;4.12;100.00
18167;BME280;9208;42.688;23.404;2023-03-16T06:02:50;94933.66;;;4.02;100.00
18167;BME280;9208;42.688;23.404;2023-03-16T06:05:17;94940.50;;;4.15;100.00
18167;BME280;9208;42.688;23.404;2023-03-16T06:07:43;94943.81;;;4.10;100.00
18167;BME280;9208;42.688;23.404;2023-03-16T06:10:10;94949.22;;;4.10;100.00
18167;BME280;9208;42.688;23.404;2023-03-16T06:12:36;94950.47;;;4.18;100.00
18167;BME280;9208;42.688;23.404;2023-03-16T06:15:02;94950.72;;;4.11;100.00
18167;BME280;9208;42.688;23.404;2023-03-16T06:17:31;94960.53;;;4.09;100.00
18167;BME280;9208;42.688;23.404;2023-03-16T06:19:57;94956.31;;;4.08;100.00
18167;BME280;9208;42.688;23.404;2023-03-16T06:22:22;94957.03;;;4.08;100.00
18167;BME280;9208;42.688;23.404;2023-03-16T06:24:49;94967.88;;;4.08;100.00
18167;BME280;9208;42.688;23.404;2023-03-16T06:27:14;94969.09;;;4.07;100.00
18167;BME280;9208;42.688;23.404;2023-03-16T06:29:40;94971.50;;;4.05;100.00
18167;BME280;9208;42.688;23.404;2023-03-16T06:32:05;94973.47;;;4.05;100.00
18167;BME280;9208;42.688;23.404;2023-03-16T06:34:30;94978.13;;;4.04;100.00
18167;BME280;9208;42.688;23.404;2023-03-16T06:36:56;94977.50;;;3.91;100.00
18167;BME280;9208;42.688;23.404;2023-03-16T06:39:21;94984.91;;;4.00;100.00
18167;BME280;9208;42.688;23.404;2023-03-16T06:41:47;94988.66;;;4.02;100.00
18167;BME280;9208;42.688;23.404;2023-03-16T06:44:12;94987.81;;;4.14;100.00
18167;BME280;9208;42.688;23.404;2023-03-16T06:46:38;94994.13;;;4.11;100.00
18167;BME280;9208;42.688;23.404;2023-03-16T06:49:03;94987.94;;;4.11;100.00
18167;BME280;9208;42.688;23.404;2023-03-16T06:51:29;95001.69;;;4.16;100.00
18167;BME280;9208;42.688;23.404;2023-03-16T06:53:55;95002.91;;;4.24;100.00
18167;BME280;9208;42.688;23.404;2023-03-16T06:56:21;95013.16;;;4.20;100.00
18167;BME280;9208;42.688;23.404;2023-03-16T06:58:46;95011.53;;;4.32;100.00
18167;BME280;9208;42.688;23.404;2023-03-16T07:01:12;95016.81;;;4.35;100.00
18167;BME280;9208;42.688;23.404;2023-03-16T07:03:37;95008.66;;;4.35;100.00
18167;BME280;9208;42.688;23.404;2023-03-16T07:06:03;95020.72;;;4.34;100.00
18167;BME280;9208;42.688;23.404;2023-03-16T07:08:30;95032.50;;;4.40;100.00
18167;BME280;9208;42.688;23.404;2023-03-16T07:10:56;95022.13;;;4.39;100.00
18167;BME280;9208;42.688;23.404;2023-03-16T07:13:21;95028.00;;;4.37;100.00
18167;BME280;9208;42.688;23.404;2023-03-16T07:15:50;95038.56;;;4.44;100.00
18167;BME280;9208;42.688;23.404;2023-03-16T07:18:16;95029.94;;;4.37;100.00
18167;BME280;9208;42.688;23.404;2023-03-16T07:20:42;95037.47;;;4.33;100.00
18167;BME280;9208;42.688;23.404;2023-03-16T07:23:08;95033.06;;;4.26;100.00
18167;BME280;9208;42.688;23.404;2023-03-16T07:25:33;95048.31;;;4.33;100.00
18167;BME280;9208;42.688;23.404;2023-03-16T07:27:59;95042.38;;;4.16;100.00
18167;BME280;9208;42.688;23.404;2023-03-16T07:30:24;95048.28;;;4.24;100.00
18167;BME280;9208;42.688;23.404;2023-03-16T07:32:50;95045.41;;;4.18;100.00
18167;BME280;9208;42.688;23.404;2023-03-16T07:35:16;95045.91;;;4.35;100.00
18167;BME280;9208;42.688;23.404;2023-03-16T07:37:42;95042.41;;;4.25;100.00
18167;BME280;9208;42.688;23.404;2023-03-16T07:40:08;95048.19;;;4.36;100.00
18167;BME280;9208;42.688;23.404;2023-03-16T07:42:37;95049.88;;;4.43;100.00
18167;BME280;9208;42.688;23.404;2023-03-16T07:45:03;95062.53;;;4.46;100.00
18167;BME280;9208;42.688;23.404;2023-03-16T07:47:29;95064.19;;;4.43;100.00
18167;BME280;9208;42.688;23.404;2023-03-16T07:49:55;95062.84;;;4.48;100.00
18167;BME280;9208;42.688;23.404;2023-03-16T07:52:21;95059.19;;;4.42;100.00
18167;BME280;9208;42.688;23.404;2023-03-16T07:54:48;95060.44;;;4.50;100.00
18167;BME280;9208;42.688;23.404;2023-03-16T07:57:13;95065.72;;;4.53;100.00
18167;BME280;9208;42.688;23.404;2023-03-16T07:59:39;95064.06;;;4.56;100.00
18167;BME280;9208;42.688;23.404;2023-03-16T08:02:05;95070.22;;;4.47;100.00
18167;BME280;9208;42.688;23.404;2023-03-16T08:04:31;95066.03;;;4.55;100.00
18167;BME280;9208;42.688;23.404;2023-03-16T08:06:56;95076.91;;;4.55;100.00
18167;BME280;9208;42.688;23.404;2023-03-16T08:09:25;95073.13;;;4.53;100.00
18167;BME280;9208;42.688;23.404;2023-03-16T08:11:52;95078.41;;;4.56;100.00
18167;BME280;9208;42.688;23.404;2023-03-16T08:14:17;95086.31;;;4.72;100.00
18167;BME280;9208;42.688;23.404;2023-03-16T08:16:42;95082.81;;;4.72;100.00
18167;BME280;9208;42.688;23.404;2023-03-16T08:19:08;95085.66;;;4.59;100.00
18167;BME280;9208;42.688;23.404;2023-03-16T08:21:33;95093.81;;;4.59;100.00
18167;BME280;9208;42.688;23.404;2023-03-16T08:24:00;95093.69;;;4.72;100.00
18167;BME280;9208;42.688;23.404;2023-03-16T08:26:25;95091.75;;;4.72;100.00
18167;BME280;9208;42.688;23.404;2023-03-16T08:28:51;95095.53;;;4.84;100.00
18167;BME280;9208;42.688;23.404;2023-03-16T08:31:18;95089.34;;;4.83;100.00
18167;BME280;9208;42.688;23.404;2023-03-16T08:33:46;95089.63;;;4.76;100.00
18167;BME280;9208;42.688;23.404;2023-03-16T08:36:13;95100.38;;;4.89;100.00
18167;BME280;9208;42.688;23.404;2023-03-16T08:38:40;95100.81;;;4.78;100.00
18167;BME280;9208;42.688;23.404;2023-03-16T08:41:06;95102.16;;;4.83;100.00
18167;BME280;9208;42.688;23.404;2023-03-16T08:43:32;95111.06;;;4.83;100.00
18167;BME280;9208;42.688;23.404;2023-03-16T08:45:58;95108.78;;;4.73;100.00
18167;BME280;9208;42.688;23.404;2023-03-16T08:48:24;95111.97;;;4.80;100.00
18167;BME280;9208;42.688;23.404;2023-03-16T08:50:49;95115.47;;;4.90;100.00
18167;BME280;9208;42.688;23.404;2023-03-16T08:53:16;95114.56;;;4.93;100.00
18167;BME280;9208;42.688;23.404;2023-03-16T08:55:41;95112.63;;;5.02;100.00
18167;BME280;9208;42.688;23.404;2023-03-16T08:58:08;95133.75;;;5.07;100.00
18167;BME280;9208;42.688;23.404;2023-03-16T09:00:35;95131.38;;;5.09;100.00
18167;BME280;9208;42.688;23.404;2023-03-16T09:03:01;95140.88;;;5.14;100.00
18167;BME280;9208;42.688;23.404;2023-03-16T09:05:27;95134.09;;;5.09;100.00
18167;BME280;9208;42.688;23.404;2023-03-16T09:07:53;95125.03;;;5.12;100.00
18167;BME280;9208;42.688;23.404;2023-03-16T09:10:19;95137.09;;;5.20;100.00
18167;BME280;9208;42.688;23.404;2023-03-16T09:12:48;95135.34;;;5.26;100.00
18167;BME280;9208;42.688;23.404;2023-03-16T09:15:14;95133.50;;;5.23;100.00
18167;BME280;9208;42.688;23.404;2023-03-16T09:17:40;95138.66;;;5.30;100.00
18167;BME280;9208;42.688;23.404;2023-03-16T09:20:07;95138.34;;;5.28;100.00
18167;BME280;9208;42.688;23.404;2023-03-16T09:22:34;95143.59;;;5.23;100.00
18167;BME280;9208;42.688;23.404;2023-03-16T09:25:04;95142.88;;;5.31;100.00
18167;BME280;9208;42.688;23.404;2023-03-16T09:27:34;95138.94;;;5.32;100.00
18167;BME280;9208;42.688;23.404;2023-03-16T09:30:02;95142.88;;;5.31;100.00
18167;BME280;9208;42.688;23.404;2023-03-16T09:32:29;95142.13;;;5.31;100.00
18167;BME280;9208;42.688;23.404;2023-03-16T09:34:54;95143.16;;;5.24;100.00
18167;BME280;9208;42.688;23.404;2023-03-16T09:37:21;95144.56;;;5.38;100.00
18167;BME280;9208;42.688;23.404;2023-03-16T09:39:49;95141.25;;;5.43;100.00
18167;BME280;9208;42.688;23.404;2023-03-16T09:42:37;95147.88;;;5.42;100.00
18167;BME280;9208;42.688;23.404;2023-03-16T09:45:31;95150.75;;;5.47;100.00
18167;BME280;9208;42.688;23.404;2023-03-16T09:48:02;95151.81;;;5.50;100.00
18167;BME280;9208;42.688;23.404;2023-03-16T09:50:36;95154.53;;;5.50;100.00
18167;BME280;9208;42.688;23.404;2023-03-16T09:55:41;95150.28;;;5.49;100.00
18167;BME280;9208;42.688;23.404;2023-03-16T09:58:18;95142.13;;;5.49;100.00
18167;BME280;9208;42.688;23.404;2023-03-16T10:06:02;95158.91;;;5.56;100.00
18167;BME280;9208;42.688;23.404;2023-03-16T10:08:42;95161.94;;;5.58;100.00
18167;BME280;9208;42.688;23.404;2023-03-16T10:13:46;95149.84;;;5.59;100.00
18167;BME280;9208;42.688;23.404;2023-03-16T10:16:40;95164.69;;;5.67;100.00
18167;BME280;9208;42.688;23.404;2023-03-16T10:19:17;95159.06;;;5.62;100.00
18167;BME280;9208;42.688;23.404;2023-03-16T10:21:48;95159.97;;;5.68;100.00
18167;BME280;9208;42.688;23.404;2023-03-16T10:24:23;95159.53;;;5.60;100.00
18167;BME280;9208;42.688;23.404;2023-03-16T10:26:56;95152.56;;;5.68;100.00
18167;BME280;9208;42.688;23.404;2023-03-16T10:29:29;95150.31;;;5.67;100.00
18167;BME280;9208;42.688;23.404;2023-03-16T10:32:07;95144.44;;;5.77;100.00
18167;BME280;9208;42.688;23.404;2023-03-16T10:34:36;95149.00;;;5.80;100.00
18167;BME280;9208;42.688;23.404;2023-03-16T10:37:03;95140.19;;;5.76;100.00
18167;BME280;9208;42.688;23.404;2023-03-16T10:39:35;95147.63;;;5.85;100.00
18167;BME280;9208;42.688;23.404;2023-03-16T10:42:01;95143.69;;;5.86;100.00
18167;BME280;9208;42.688;23.404;2023-03-16T10:44:28;95141.13;;;5.91;100.00
18167;BME280;9208;42.688;23.404;2023-03-16T10:47:02;95144.59;;;6.10;100.00
18167;BME280;9208;42.688;23.404;2023-03-16T10:49:39;95150.31;;;6.12;100.00
18167;BME280;9208;42.688;23.404;2023-03-16T10:55:08;95160.16;;;6.09;100.00
18167;BME280;9208;42.688;23.404;2023-03-16T10:57:36;95154.53;;;6.13;100.00
18167;BME280;9208;42.688;23.404;2023-03-16T11:00:16;95156.50;;;6.21;100.00
18167;BME280;9208;42.688;23.404;2023-03-16T11:02:50;95157.59;;;6.15;100.00
18167;BME280;9208;42.688;23.404;2023-03-16T11:10:34;95162.72;;;6.13;100.00
18167;BME280;9208;42.688;23.404;2023-03-16T11:13:18;95150.16;;;6.15;100.00
18167;BME280;9208;42.688;23.404;2023-03-16T11:15:55;95153.81;;;6.12;100.00
18167;BME280;9208;42.688;23.404;2023-03-16T11:18:38;95153.81;;;6.12;100.00
18167;BME280;9208;42.688;23.404;2023-03-16T11:21:44;95156.81;;;6.23;100.00
18167;BME280;9208;42.688;23.404;2023-03-16T11:24:19;95150.03;;;6.19;100.00
18167;BME280;9208;42.688;23.404;2023-03-16T11:26:53;95150.75;;;6.19;100.00
18167;BME280;9208;42.688;23.404;2023-03-16T11:29:26;95154.53;;;6.22;100.00
18167;BME280;9208;42.688;23.404;2023-03-16T11:32:04;95163.00;;;6.24;100.00
18167;BME280;9208;42.688;23.404;2023-03-16T11:34:31;95164.38;;;6.19;100.00
18167;BME280;9208;42.688;23.404;2023-03-16T11:50:53;95158.03;;;6.22;99.23
18167;BME280;9208;42.688;23.404;2023-03-16T11:56:40;95158.16;;;6.37;98.74
18167;BME280;9208;42.688;23.404;2023-03-16T11:59:35;95158.28;;;6.33;98.30
18167;BME280;9208;42.688;23.404;2023-03-16T12:10:03;95162.41;;;6.20;99.49
18167;BME280;9208;42.688;23.404;2023-03-16T12:12:54;95163.75;;;6.15;99.15
18167;BME280;9208;42.688;23.404;2023-03-16T12:15:41;95179.81;;;6.13;100.00
18167;BME280;9208;42.688;23.404;2023-03-16T12:18:41;95171.47;;;6.08;98.64
18167;BME280;9208;42.688;23.404;2023-03-16T12:21:14;95175.72;;;6.00;98.83
18167;BME280;9208;42.688;23.404;2023-03-16T12:23:50;95186.75;;;6.05;98.97
18167;BME280;9208;42.688;23.404;2023-03-16T12:26:18;95191.47;;;6.14;98.36
18167;BME280;9208;42.688;23.404;2023-03-16T12:28:43;95186.31;;;6.16;97.63
18167;BME280;9208;42.688;23.404;2023-03-16T12:31:40;95184.78;;;6.24;97.24
18167;BME280;9208;42.688;23.404;2023-03-16T12:40:12;95196.88;;;6.23;98.01
18167;BME280;9208;42.688;23.404;2023-03-16T12:46:01;95212.16;;;6.11;98.65
18167;BME280;9208;42.688;23.404;2023-03-16T12:48:32;95196.44;;;6.06;99.75
18167;BME280;9208;42.688;23.404;2023-03-16T12:51:02;95215.63;;;6.12;98.51
18167;BME280;9208;42.688;23.404;2023-03-16T12:53:59;95211.84;;;6.09;98.63
18167;BME280;9208;42.688;23.404;2023-03-16T12:56:31;95212.63;;;6.01;100.00
18167;BME280;9208;42.688;23.404;2023-03-16T12:59:02;95204.91;;;5.99;100.00
18167;BME280;9208;42.688;23.404;2023-03-16T13:01:37;95212.75;;;6.06;100.00
18167;BME280;9208;42.688;23.404;2023-03-16T13:04:13;95212.31;;;5.90;100.00
18167;BME280;9208;42.688;23.404;2023-03-16T13:06:46;95215.91;;;5.69;100.00
18167;BME280;9208;42.688;23.404;2023-03-16T13:09:22;95220.88;;;5.79;100.00
18167;BME280;9208;42.688;23.404;2023-03-16T13:11:49;95213.63;;;5.76;100.00
18167;BME280;9208;42.688;23.404;2023-03-16T13:14:31;95218.75;;;5.74;100.00
18167;BME280;9208;42.688;23.404;2023-03-16T13:17:20;95214.53;;;5.73;100.00
18167;BME280;9208;42.688;23.404;2023-03-16T13:22:49;95226.75;;;5.51;100.00
18167;BME280;9208;42.688;23.404;2023-03-16T13:25:38;95220.81;;;5.43;100.00
18167;BME280;9208;42.688;23.404;2023-03-16T13:28:11;95222.31;;;5.35;100.00
18167;BME280;9208;42.688;23.404;2023-03-16T13:30:43;95230.16;;;5.33;100.00
18167;BME280;9208;42.688;23.404;2023-03-16T13:33:17;95230.94;;;5.43;100.00
18167;BME280;9208;42.688;23.404;2023-03-16T13:35:45;95230.03;;;5.46;100.00
18167;BME280;9208;42.688;23.404;2023-03-16T13:38:13;95231.69;;;5.52;100.00
18167;BME280;9208;42.688;23.404;2023-03-16T13:40:50;95237.75;;;5.56;100.00
18167;BME280;9208;42.688;23.404;2023-03-16T13:43:28;95224.28;;;5.44;100.00
18167;BME280;9208;42.688;23.404;2023-03-16T13:45:55;95233.84;;;5.57;100.00
18167;BME280;9208;42.688;23.404;2023-03-16T13:48:20;95241.69;;;5.55;100.00
18167;BME280;9208;42.688;23.404;2023-03-16T13:51:12;95249.25;;;5.60;100.00
18167;BME280;9208;42.688;23.404;2023-03-16T13:53:40;95248.50;;;5.60;100.00
18167;BME280;9208;42.688;23.404;2023-03-16T13:56:06;95251.53;;;5.62;100.00
18167;BME280;9208;42.688;23.404;2023-03-16T13:58:37;95239.88;;;5.61;100.00
18167;BME280;9208;42.688;23.404;2023-03-16T14:01:27;95257.25;;;5.64;100.00
18167;BME280;9208;42.688;23.404;2023-03-16T14:03:56;95251.38;;;5.65;100.00
18167;BME280;9208;42.688;23.404;2023-03-16T14:06:27;95253.81;;;5.72;100.00
18167;BME280;9208;42.688;23.404;2023-03-16T14:08:58;95253.66;;;5.76;100.00
18167;BME280;9208;42.688;23.404;2023-03-16T14:11:26;95263.63;;;5.70;100.00